Lynchburg Regional Preston Glenn Field
KLYH : now visible

Airfield :











YOU CAN JOIN US ON...

 
LOGIN :

Register | Disclaimer

   EN    FR    IT 

 









Legend :    VFR   Marginal VFR   IFR   Intensive IFR   Very Intensive IFR
Visi :
Ceiling :
>= 8 km
>= 3000ft
5 to 8 km
1000 to 3000 ft
1500m to 5 km
500 to 1000 ft
800 to 1500m
200 to 500 ft
< 800m
< 200 ft
Symbols :   Thunderstorms  Fog  Heavy snow  Heavy precipitations  Wind > 20 kt






- Airport Elevation : 938 ft
- IATA code : LYH


KLYH - Lynchburg Regional Preston Glenn Field

CURRENT METAR :
  • 250454Z AUTO 04008KT 9SM -RA OVC016 16/13 A3004 RMK AO2 RAB12 SLP163 P0001 T01610133 402780139

EXPIRED METARs :
  • 250425Z AUTO 02009KT 10SM -RA OVC015 17/14 A3003 RMK AO2 RAB12 P0000 T01670144
  • 250354Z AUTO 04009KT 10SM OVC012 18/15 A3003 RMK AO2 RAB0255E25 SLP161 P0000 T01780150
  • 250330Z AUTO 04011KT 10SM OVC009 18/16 A3003 RMK AO2 RAB0255E25 P0000 T01830161
  • 250321Z AUTO 02008KT 10SM -RA BKN010 OVC055 19/17 A3003 RMK AO2 RAB0255 P0000 T01890167
  • 250254Z AUTO 05010G15KT 10SM FEW046 OVC055 20/17 A3001 RMK AO2 RAB16E32 SLP154 P0000 60000 T02000167 53012
  • 250154Z 00000KT 10SM SCT065 OVC080 20/17 A2999 RMK AO2 SLP148 T02000167

TAF KLYH
Valid from the 25 at 00:00 until the 26 at 00:00 UTC


242348Z 2500/2524 VRB04KT P6SM -RA BKN050 OVC080
FM250200 01006KT P6SM -RA OVC018
FM250600 03008G17KT 5SM -RA BR OVC007
FM251000 03009KT 3SM -RA BR OVC004
FM252100 04007KT 1SM -RADZ BR OVC003
KZDC FIR / North America



MET'MAP, your aeronautical weather chart ! - Copyright ORBIFLY December 2007 - Disclaimer

ORBIFLY MET'MAP TEAM :

Programming & Development : Alexandra Zaïnal
Concept & original design : Baudouin d'Aumeries
Assistance for programming : Marc-Olivier Méhu
Technical & hardware support : Manuel Goepfert

Contact : metmap@orbifly.com




SOURCES & CREDITS :

   NOAA       Earth
Advisory